Whitacre, Virginia
Current Conditions -  °F | °C
As of 9:53 AM on Friday 28 Nov 2014 (Local Time) from KMRB Reporting Station
Broken Clouds Broken Clouds  
Wind Chill: 27°   Ceiling: 3800
Heat Index: 35°   Visibility: 10mi
Dew Point: 20°   Wind: 12mph
Humidity: 54%   Direction: 340°NNW
Pressure: 30.31"   Gusts: NA
Location:  39.3835°N, 78.3051°W
Report Text: KMRB 281453Z 34010KT 10SM FEW029 BKN038 BKN046 02/M07 A3031 RMK AO2 SNE03 SLP270 P0000 60000 T00171067 51020
Loading
Personal Weather Stations






























Interactive Weather Map New forecast layout! Learn more

10-Day Weather Forecast

Advertisements
Track Severe Weather on mobile